Time;durP1;ratioP1;P1;durP2;ratioP2;P2;SDS_P1;SDS_P2;PMS_P1;PMS_P2;Temp;Humidity;BMP_temperature;BMP_pressure;BME280_temperature;BME280_humidity;BME280_pressure;Samples;Min_cycle;Max_cycle;Signal;HPM_P1;HPM_P2
2021/08/17 00:03:40;;;;;;;48.33;20.50;;;20.70;80.90;;;;;;12025249;28;20162;-62
2021/08/17 00:09:27;;;;;;;40.85;19.92;;;20.70;80.90;;;;;;12023856;28;20040;-62
2021/08/17 00:15:13;;;;;;;40.17;19.45;;;20.60;81.00;;;;;;12023883;28;20053;-62
2021/08/17 00:21:02;;;;;;;40.58;19.00;;;20.60;81.20;;;;;;12026712;28;20099;-62
2021/08/17 07:52:00;;;;;;;21.60;9.57;;;19.60;91.40;;;;;;15013223;22;1345178;-63
2021/08/17 07:57:47;;;;;;;22.50;9.73;;;19.80;91.30;;;;;;14922566;22;20280;-63
2021/08/17 08:03:34;;;;;;;17.92;8.43;;;19.90;91.20;;;;;;14951833;22;20015;-62
2021/08/17 08:09:23;;;;;;;21.95;8.63;;;19.80;91.20;;;;;;14950958;22;20089;-62
2021/08/17 08:15:11;;;;;;;23.75;8.38;;;19.60;91.40;;;;;;14952265;22;20074;-61
2021/08/17 08:20:58;;;;;;;17.02;7.78;;;19.40;92.10;;;;;;14943516;22;20024;-61
2021/08/17 08:26:47;;;;;;;17.30;7.60;;;19.60;91.90;;;;;;14936174;22;20032;-61
2021/08/17 08:32:34;;;;;;;24.30;8.20;;;19.70;92.10;;;;;;14936531;22;20099;-60
2021/08/17 08:38:21;;;;;;;25.70;8.65;;;19.90;91.80;;;;;;14935791;22;20034;-61
2021/08/17 08:44:10;;;;;;;21.52;6.68;;;20.00;92.20;;;;;;14935737;22;20024;-61
2021/08/17 08:49:57;;;;;;;16.40;6.10;;;20.20;91.80;;;;;;14935658;22;20081;-62
2021/08/17 08:55:45;;;;;;;13.18;5.90;;;20.30;91.20;;;;;;14921704;22;20090;-62
2021/08/17 09:01:33;;;;;;;14.75;5.78;;;20.50;90.80;;;;;;14933418;22;20357;-62
2021/08/17 09:07:34;;;;;;;14.23;6.13;;;20.90;90.50;;;;;;14933718;22;20552;-62
2021/08/17 09:13:25;;;;;;;15.88;5.55;;;20.90;90.10;;;;;;14933214;22;20024;-62
2021/08/17 09:19:36;;;;;;;17.85;5.93;;;20.80;89.40;;;;;;14934498;22;20030;-61
2021/08/17 09:25:32;;;;;;;16.10;6.43;;;20.90;89.50;;;;;;14933861;22;20091;-62
2021/08/17 09:31:33;;;;;;;14.98;5.78;;;21.00;89.00;;;;;;14933566;22;20098;-62
2021/08/17 09:37:25;;;;;;;16.70;5.32;;;20.90;89.10;;;;;;14933727;22;20042;-62
2021/08/17 09:43:13;;;;;;;14.63;5.47;;;20.80;89.50;;;;;;14932196;22;20024;-62
2021/08/17 09:49:19;;;;;;;24.90;6.45;;;20.70;90.00;;;;;;14933921;22;20094;-62
2021/08/17 09:55:17;;;;;;;11.10;5.05;;;20.80;89.90;;;;;;14911222;22;20032;-62
2021/08/17 10:01:06;;;;;;;16.67;5.57;;;20.70;88.00;;;;;;14905162;22;20117;-62
2021/08/17 10:06:54;;;;;;;18.02;6.38;;;20.90;87.60;;;;;;14904551;22;20022;-62
2021/08/17 10:12:50;;;;;;;23.08;6.65;;;21.20;85.30;;;;;;14908582;22;20020;-61
2021/08/17 10:18:38;;;;;;;13.70;4.93;;;21.30;85.00;;;;;;14903817;22;20033;-63
2021/08/17 10:24:34;;;;;;;18.42;6.13;;;21.50;85.10;;;;;;14903572;22;20019;-61
2021/08/17 10:30:25;;;;;;;11.85;5.57;;;21.40;84.10;;;;;;14905080;22;20020;-61
2021/08/17 10:36:28;;;;;;;10.85;4.90;;;21.20;84.30;;;;;;14902003;22;20469;-62
2021/08/17 10:42:23;;;;;;;16.08;5.90;;;21.00;84.80;;;;;;14903232;22;20377;-62
2021/08/17 10:48:56;;;;;;;15.73;5.70;;;21.00;84.90;;;;;;14904427;22;20027;-62
2021/08/17 10:54:43;;;;;;;14.83;5.40;;;21.00;85.70;;;;;;14904921;22;20019;-62
2021/08/17 11:06:59;;;;;;;12.00;5.53;;;21.00;85.70;;;;;;14934531;22;20042;-61
2021/08/17 11:12:47;;;;;;;13.23;5.70;;;20.80;86.80;;;;;;14931635;22;20544;-61
2021/08/17 11:18:49;;;;;;;16.63;5.07;;;20.80;87.40;;;;;;14930399;22;20362;-60
2021/08/17 11:24:38;;;;;;;14.50;5.10;;;20.70;86.90;;;;;;14931881;22;20019;-60
2021/08/17 11:30:25;;;;;;;16.45;5.57;;;20.90;86.20;;;;;;14932565;22;20028;-61
2021/08/17 11:36:21;;;;;;;10.60;4.80;;;21.30;86.70;;;;;;14931122;22;20509;-61
2021/08/17 11:42:21;;;;;;;16.00;5.15;;;21.20;84.60;;;;;;14931063;22;20357;-61
2021/08/17 11:48:08;;;;;;;9.75;4.78;;;20.90;85.90;;;;;;14932310;22;20034;-61
2021/08/17 11:53:55;;;;;;;12.30;4.63;;;20.80;86.50;;;;;;14912340;22;20087;-60
2021/08/17 11:59:46;;;;;;;16.55;5.70;;;20.70;86.70;;;;;;14899449;22;20130;-61
2021/08/17 12:05:34;;;;;;;9.77;4.43;;;20.50;87.60;;;;;;14906195;22;20075;-60
2021/08/17 12:11:22;;;;;;;9.50;4.20;;;20.40;88.10;;;;;;14905903;22;20108;-60
2021/08/17 12:17:12;;;;;;;14.20;4.22;;;20.40;87.80;;;;;;14935260;22;20030;-61
2021/08/17 12:22:59;;;;;;;13.75;4.65;;;20.70;86.60;;;;;;14934508;22;20511;-59
2021/08/17 12:28:48;;;;;;;12.05;3.83;;;21.20;86.10;;;;;;14934005;22;20058;-61
2021/08/17 12:34:45;;;;;;;11.48;3.60;;;21.50;84.00;;;;;;14934753;22;20095;-61
2021/08/17 12:40:31;;;;;;;7.05;3.20;;;21.60;82.50;;;;;;14935034;22;20031;-61
2021/08/17 12:46:18;;;;;;;6.82;3.13;;;21.50;81.00;;;;;;14932754;22;20020;-61
2021/08/17 12:52:30;;;;;;;10.73;3.10;;;21.20;80.90;;;;;;14927190;22;20020;-61
2021/08/17 12:58:19;;;;;;;8.45;2.90;;;21.20;81.50;;;;;;14905472;22;20027;-62
2021/08/17 13:04:05;;;;;;;7.05;3.03;;;21.30;81.60;;;;;;14906859;22;20022;-60
2021/08/17 13:09:58;;;;;;;6.32;2.88;;;21.40;80.90;;;;;;14933915;22;20047;-61
2021/08/17 13:15:47;;;;;;;9.87;2.97;;;21.60;80.60;;;;;;14933817;22;20019;-62
2021/08/17 13:21:34;;;;;;;7.25;2.50;;;21.70;80.60;;;;;;14933415;22;20481;-60
2021/08/17 13:27:22;;;;;;;4.22;2.40;;;21.40;80.60;;;;;;14933168;22;20051;-61
2021/08/17 13:33:11;;;;;;;6.85;2.40;;;21.30;80.90;;;;;;14934346;22;20019;-61
2021/08/17 13:38:58;;;;;;;4.72;2.22;;;21.30;80.30;;;;;;14934804;22;20034;-61
2021/08/17 13:44:47;;;;;;;8.02;3.08;;;21.00;81.20;;;;;;14932623;22;20474;-61
2021/08/17 13:50:35;;;;;;;4.82;2.70;;;21.00;80.70;;;;;;14934233;22;20031;-61
2021/08/17 13:56:22;;;;;;;12.82;2.83;;;21.20;81.20;;;;;;14927834;22;20030;-62
2021/08/17 14:02:13;;;;;;;9.30;3.28;;;21.00;80.70;;;;;;14930796;22;20587;-61
2021/08/17 14:08:00;;;;;;;9.13;3.38;;;21.20;81.00;;;;;;14932998;22;20133;-60
2021/08/17 14:13:47;;;;;;;6.78;3.38;;;21.40;81.30;;;;;;14930727;22;20569;-61
2021/08/17 14:19:35;;;;;;;6.03;2.95;;;21.50;81.10;;;;;;14932406;22;20120;-61
2021/08/17 14:25:22;;;;;;;5.53;3.10;;;21.70;80.40;;;;;;14932391;22;20095;-61
2021/08/17 14:31:09;;;;;;;7.07;2.85;;;21.50;81.00;;;;;;14933099;22;20126;-61
2021/08/17 14:36:58;;;;;;;11.55;2.80;;;21.40;81.80;;;;;;14932992;22;20111;-65
2021/08/17 14:42:45;;;;;;;6.05;2.60;;;21.30;82.60;;;;;;14931410;22;20094;-61
2021/08/17 14:48:32;;;;;;;6.82;2.80;;;21.20;83.40;;;;;;14932891;22;20528;-61
2021/08/17 14:54:20;;;;;;;7.75;3.05;;;21.00;85.20;;;;;;14917233;22;20030;-61
2021/08/17 15:00:08;;;;;;;6.03;2.65;;;20.80;85.50;;;;;;14930975;22;20027;-61
2021/08/17 15:05:55;;;;;;;5.00;2.80;;;21.10;84.80;;;;;;14931502;22;20038;-60
2021/08/17 15:11:43;;;;;;;5.20;2.95;;;21.10;84.30;;;;;;14931877;22;20024;-61
2021/08/17 15:17:30;;;;;;;7.53;2.70;;;21.20;85.00;;;;;;14931094;22;20026;-61
2021/08/17 15:23:17;;;;;;;6.97;2.92;;;21.40;84.90;;;;;;14931304;22;20030;-61
2021/08/17 15:29:07;;;;;;;10.00;3.25;;;21.80;84.10;;;;;;14932244;22;20090;-61
2021/08/17 15:34:53;;;;;;;5.80;2.80;;;21.80;83.60;;;;;;14936562;22;20030;-60
2021/08/17 15:40:41;;;;;;;5.45;2.97;;;21.90;83.30;;;;;;14936129;22;20028;-61
2021/08/17 15:46:29;;;;;;;9.13;3.45;;;21.90;82.80;;;;;;14936098;22;20043;-61
2021/08/17 15:52:17;;;;;;;5.38;2.67;;;21.50;84.80;;;;;;14925836;22;20024;-61
2021/08/17 15:58:05;;;;;;;6.28;3.30;;;21.30;84.50;;;;;;14924406;22;20097;-61
2021/08/17 16:03:54;;;;;;;8.15;2.97;;;21.50;84.90;;;;;;14936095;22;20027;-63
2021/08/17 16:09:41;;;;;;;6.70;3.17;;;21.50;84.70;;;;;;14932919;22;20551;-61
2021/08/17 16:15:30;;;;;;;10.07;3.38;;;21.10;85.80;;;;;;14936304;22;20023;-61
2021/08/17 16:21:19;;;;;;;5.13;3.35;;;21.00;86.00;;;;;;14934859;22;20028;-61
2021/08/17 16:27:06;;;;;;;6.70;2.85;;;21.10;86.80;;;;;;14933997;22;20051;-61
2021/08/17 16:32:53;;;;;;;5.35;3.20;;;21.20;86.80;;;;;;14935184;22;20095;-61
2021/08/17 16:38:42;;;;;;;5.45;3.20;;;21.10;86.80;;;;;;14935689;22;20094;-61
2021/08/17 16:44:29;;;;;;;8.43;3.80;;;20.90;87.30;;;;;;14935170;22;20094;-62
2021/08/17 16:50:15;;;;;;;10.13;4.25;;;21.00;87.40;;;;;;14931821;22;20173;-61
2021/08/17 16:56:09;;;;;;;11.90;3.60;;;21.00;86.50;;;;;;14933428;22;20094;-62
2021/08/17 17:02:05;;;;;;;7.10;3.45;;;21.00;86.30;;;;;;14934552;22;20030;-62
2021/08/17 17:07:52;;;;;;;10.77;3.90;;;20.90;86.90;;;;;;14929331;22;20055;-62
2021/08/17 17:13:41;;;;;;;13.00;4.25;;;21.10;86.80;;;;;;14930490;22;20091;-62
2021/08/17 17:19:28;;;;;;;6.05;3.90;;;21.30;85.70;;;;;;14926499;22;20059;-62
2021/08/17 17:25:14;;;;;;;10.05;3.53;;;21.50;84.60;;;;;;14930159;22;20094;-61
2021/08/17 17:31:03;;;;;;;8.95;3.63;;;21.10;84.90;;;;;;14929965;22;20307;-61
2021/08/17 17:36:50;;;;;;;10.20;4.30;;;20.90;86.10;;;;;;14928808;22;20071;-61
2021/08/17 17:42:37;;;;;;;9.50;4.30;;;20.90;86.00;;;;;;14905800;22;20099;-61
2021/08/17 17:48:25;;;;;;;12.50;4.03;;;20.90;86.20;;;;;;14908222;22;20028;-61
2021/08/17 17:54:13;;;;;;;7.70;3.72;;;20.90;86.40;;;;;;14915479;22;20024;-61
2021/08/17 17:59:59;;;;;;;7.68;3.83;;;20.90;86.60;;;;;;14904595;22;20023;-59
2021/08/17 18:05:48;;;;;;;8.45;3.90;;;20.80;86.80;;;;;;14903414;22;20114;-61
2021/08/17 18:11:35;;;;;;;7.00;3.85;;;20.90;86.90;;;;;;14907902;22;20473;-61
2021/08/17 18:17:22;;;;;;;11.38;4.22;;;20.90;86.80;;;;;;14906868;22;20027;-61
2021/08/17 18:23:11;;;;;;;10.23;4.05;;;20.90;86.80;;;;;;14905870;22;20027;-61
2021/08/17 18:28:57;;;;;;;14.60;4.65;;;20.70;87.60;;;;;;14903210;22;20070;-62
2021/08/17 18:34:45;;;;;;;13.80;5.00;;;20.70;88.20;;;;;;14906125;22;20019;-59
2021/08/17 18:40:33;;;;;;;10.98;3.90;;;20.60;88.50;;;;;;14908833;22;20116;-60
2021/08/17 18:46:21;;;;;;;5.65;3.75;;;20.50;89.30;;;;;;14931831;22;20077;-59
2021/08/17 18:52:08;;;;;;;9.93;3.95;;;20.50;89.50;;;;;;14921645;22;20020;-59
2021/08/17 18:57:56;;;;;;;8.88;4.18;;;20.60;89.50;;;;;;14901836;22;20091;-59
2021/08/17 19:03:43;;;;;;;9.27;3.80;;;20.60;89.50;;;;;;14904650;22;20034;-59
2021/08/17 19:09:30;;;;;;;10.38;3.70;;;20.80;89.00;;;;;;14906263;22;20027;-59
2021/08/17 19:15:19;;;;;;;7.90;3.35;;;20.90;88.90;;;;;;14903408;22;20020;-59
2021/08/17 19:21:06;;;;;;;7.32;3.30;;;20.80;89.50;;;;;;14905607;22;20062;-58
2021/08/17 19:26:53;;;;;;;9.70;3.30;;;20.60;90.20;;;;;;14902357;22;20016;-59
2021/08/17 19:33:06;;;;;;;9.80;3.78;;;20.40;90.50;;;;;;14923726;22;20353;-58
2021/08/17 19:38:53;;;;;;;7.28;3.88;;;20.40;90.70;;;;;;14930816;22;20047;-59
2021/08/17 19:44:41;;;;;;;11.23;4.35;;;20.50;90.60;;;;;;14930869;22;21211;-59
2021/08/17 19:50:30;;;;;;;11.98;3.97;;;20.30;90.90;;;;;;14930491;22;20057;-59
2021/08/17 19:56:17;;;;;;;12.05;3.80;;;20.40;90.90;;;;;;14886300;22;20027;-63
2021/08/17 20:02:07;;;;;;;7.88;3.45;;;20.30;90.90;;;;;;14896629;22;20110;-61
2021/08/17 20:07:56;;;;;;;11.55;4.07;;;20.10;91.40;;;;;;14926311;22;20119;-61
2021/08/17 20:13:44;;;;;;;6.80;3.33;;;20.10;91.60;;;;;;14927784;22;20022;-60
2021/08/17 20:19:31;;;;;;;8.02;3.40;;;19.90;91.60;;;;;;14934103;22;20488;-60
2021/08/17 20:25:21;;;;;;;6.50;3.30;;;20.10;91.50;;;;;;14935637;22;20039;-60
2021/08/17 20:31:09;;;;;;;12.80;3.35;;;20.20;91.40;;;;;;14845290;22;20039;-77
2021/08/17 20:36:56;;;;;;;11.30;3.20;;;20.00;91.60;;;;;;14838010;23;20035;-77
2021/08/17 20:42:44;;;;;;;9.27;3.15;;;20.00;91.70;;;;;;14842083;23;20027;-76
2021/08/17 20:48:32;;;;;;;14.80;3.25;;;20.20;91.40;;;;;;14844996;23;20055;-78
2021/08/17 20:54:19;;;;;;;12.05;4.05;;;20.40;91.30;;;;;;14844864;23;20079;-76
2021/08/17 21:00:09;;;;;;;7.45;3.45;;;20.30;91.30;;;;;;14848935;23;20020;-76
2021/08/17 21:05:56;;;;;;;5.93;3.03;;;20.30;91.30;;;;;;14846025;23;20060;-78
